Time;durP1;ratioP1;P1;durP2;ratioP2;P2;SDS_P1;SDS_P2;PMS_P1;PMS_P2;Temp;Humidity;BMP_temperature;BMP_pressure;BME280_temperature;BME280_humidity;BME280_pressure;Samples;Min_cycle;Max_cycle;Signal;HPM_P1;HPM_P2
2022/09/02 00:00:10;;;;;;;3.33;1.70;;;;;;;17.85;60.79;100892.34;685713;28;1335;-80
2022/09/02 00:00:31;;;;;;;2.78;1.70;;;;;;;17.90;60.46;100905.41;685313;28;1246;-78
2022/09/02 00:00:59;;;;;;;3.03;1.70;;;;;;;17.89;60.81;100886.06;686844;28;4319;-82
2022/09/02 00:01:23;;;;;;;4.63;1.70;;;;;;;17.88;60.53;100889.59;685205;28;1029;-80
2022/09/02 00:01:46;;;;;;;6.00;1.70;;;;;;;17.92;60.28;100888.63;683324;28;1399;-81
2022/09/02 00:02:06;;;;;;;5.38;1.60;;;;;;;17.87;60.24;100887.88;679502;29;1418;-82
2022/09/02 00:02:30;;;;;;;3.87;1.57;;;;;;;17.82;60.63;100898.59;684385;28;1235;-82
2022/09/02 00:02:50;;;;;;;3.25;1.50;;;;;;;17.82;60.48;100900.34;686656;28;1288;-81
2022/09/02 00:03:12;;;;;;;3.30;1.60;;;;;;;17.78;60.62;100877.59;681488;28;1262;-82
2022/09/02 00:03:33;;;;;;;4.13;1.80;;;;;;;17.77;60.51;100884.66;680567;28;1541;-82
2022/09/02 00:03:57;;;;;;;4.00;1.70;;;;;;;17.80;60.61;100892.47;681411;28;4455;-83
2022/09/02 00:04:24;;;;;;;4.15;1.70;;;;;;;17.79;60.53;100882.84;681798;28;1379;-81
2022/09/02 00:04:44;;;;;;;3.60;1.67;;;;;;;17.86;60.21;100886.13;685843;28;1183;-83
2022/09/02 00:05:05;;;;;;;4.60;1.70;;;;;;;17.83;60.46;100891.53;684090;28;1907;-82
2022/09/02 00:05:26;;;;;;;3.38;1.60;;;;;;;17.79;61.25;100889.88;681182;28;1216;-82
2022/09/02 00:05:47;;;;;;;2.78;1.52;;;;;;;17.83;61.00;100899.47;681003;29;1342;-83
2022/09/02 00:06:08;;;;;;;2.75;1.60;;;;;;;17.90;60.45;100886.91;681437;29;1302;-81
2022/09/02 00:06:30;;;;;;;2.90;1.60;;;;;;;17.86;60.68;100880.84;676702;29;1221;-82
2022/09/02 00:06:53;;;;;;;3.00;1.50;;;;;;;17.90;60.16;100887.75;679200;28;4301;-83
2022/09/02 00:07:13;;;;;;;2.78;1.50;;;;;;;17.86;61.05;100900.25;681459;28;1617;-81
2022/09/02 00:07:34;;;;;;;3.53;1.50;;;;;;;17.80;61.35;100907.50;685124;28;1254;-81
2022/09/02 00:07:55;;;;;;;4.00;1.60;;;;;;;17.77;61.28;100897.00;687792;28;1274;-82
2022/09/02 00:08:15;;;;;;;2.55;1.50;;;;;;;17.76;61.97;100903.22;686082;28;1330;-84
2022/09/02 00:08:37;;;;;;;3.38;1.50;;;;;;;17.79;60.64;100881.94;684642;28;1279;-81
2022/09/02 00:08:58;;;;;;;3.58;1.60;;;;;;;17.80;61.06;100891.63;681764;28;1259;-83
2022/09/02 00:09:21;;;;;;;3.05;1.60;;;;;;;17.78;61.52;100881.09;686004;28;1337;-83
2022/09/02 00:09:41;;;;;;;3.40;1.60;;;;;;;17.79;60.80;100882.84;682707;28;4327;-80
2022/09/02 00:10:02;;;;;;;3.53;1.50;;;;;;;17.78;61.23;100904.03;687700;28;1861;-81
2022/09/02 00:10:23;;;;;;;2.90;1.75;;;;;;;17.74;60.80;100882.09;685786;28;1357;-80
2022/09/02 00:10:44;;;;;;;2.80;1.70;;;;;;;17.74;60.85;100881.25;683435;28;1315;-82
2022/09/02 00:11:06;;;;;;;3.35;1.60;;;;;;;17.78;60.92;100904.91;683952;28;1164;-81
2022/09/02 00:11:29;;;;;;;4.72;1.80;;;;;;;17.86;60.46;100886.13;685500;28;1369;-83
2022/09/02 00:11:55;;;;;;;4.13;1.60;;;;;;;17.84;60.49;100885.31;686993;28;1147;-82
2022/09/02 00:12:16;;;;;;;3.35;1.48;;;;;;;17.84;60.54;100925.84;687679;28;1234;-83
2022/09/02 00:12:36;;;;;;;4.20;1.60;;;;;;;17.84;60.97;100895.91;685936;28;4422;-82
2022/09/02 00:12:57;;;;;;;3.33;1.67;;;;;;;17.81;60.99;100881.00;686724;28;1405;-82
2022/09/02 00:13:19;;;;;;;3.17;1.55;;;;;;;17.78;61.02;100877.59;683807;28;1305;-83
2022/09/02 00:13:40;;;;;;;3.13;1.55;;;;;;;17.75;61.43;100877.66;681065;28;1436;-82
2022/09/02 00:14:05;;;;;;;4.13;1.73;;;;;;;17.73;61.32;100876.88;684242;28;1507;-82
2022/09/02 00:14:33;;;;;;;2.88;1.63;;;;;;;17.70;61.91;100870.75;683993;28;1300;-81
2022/09/02 00:14:53;;;;;;;2.97;1.50;;;;;;;17.70;61.69;100875.19;681488;28;1267;-84
2022/09/02 00:15:14;;;;;;;2.75;1.42;;;;;;;17.72;61.92;100883.06;683700;28;1130;-82
2022/09/02 00:15:35;;;;;;;3.20;1.67;;;;;;;17.66;61.55;100903.47;686015;28;4351;-79
2022/09/02 00:15:56;;;;;;;3.25;1.50;;;;;;;17.72;61.38;100891.00;686582;28;1440;-83
2022/09/02 00:16:17;;;;;;;2.42;1.45;;;;;;;17.73;61.81;100882.16;684142;28;1341;-82
2022/09/02 00:16:40;;;;;;;2.72;1.45;;;;;;;17.69;61.56;100894.59;686969;28;1467;-81
2022/09/02 00:17:02;;;;;;;3.83;1.65;;;;;;;17.68;62.00;100877.88;683480;28;1373;-81
2022/09/02 00:17:23;;;;;;;2.90;1.77;;;;;;;17.64;61.51;100870.97;688291;28;1495;-82
2022/09/02 00:17:43;;;;;;;4.00;1.80;;;;;;;17.63;61.56;100884.22;686241;28;1387;-79
2022/09/02 00:18:05;;;;;;;3.00;1.50;;;;;;;17.66;61.30;100894.69;681452;28;1496;-81
2022/09/02 00:18:26;;;;;;;3.80;1.70;;;;;;;17.67;61.27;100876.13;680813;29;1227;-80
2022/09/02 00:18:47;;;;;;;3.23;1.60;;;;;;;17.68;61.37;100877.00;680655;28;4316;-80
2022/09/02 00:19:09;;;;;;;2.88;1.58;;;;;;;17.75;61.52;100906.75;681039;28;1289;-82
2022/09/02 00:19:30;;;;;;;3.50;1.50;;;;;;;17.75;61.08;100885.59;686136;28;1206;-84
2022/09/02 00:19:53;;;;;;;3.45;1.42;;;;;;;17.81;60.65;100877.50;686073;28;1382;-82
2022/09/02 00:20:13;;;;;;;4.25;1.58;;;;;;;17.74;61.92;100878.63;683746;28;1395;-83
2022/09/02 00:20:34;;;;;;;3.37;1.70;;;;;;;17.78;61.36;100886.38;683898;28;1481;-82
2022/09/02 00:20:55;;;;;;;3.35;1.60;;;;;;;17.76;61.35;100908.50;686284;28;1274;-82
2022/09/02 00:21:16;;;;;;;3.33;1.60;;;;;;;17.73;61.14;100875.09;686576;28;1669;-78
2022/09/02 00:21:36;;;;;;;2.93;1.60;;;;;;;17.77;61.37;100886.44;683657;28;4503;-83
2022/09/02 00:21:58;;;;;;;2.97;1.45;;;;;;;17.75;61.48;100861.81;682793;28;1406;-83
2022/09/02 00:22:22;;;;;;;3.55;1.60;;;;;;;17.75;61.24;100885.59;684319;28;1257;-83
2022/09/02 00:22:43;;;;;;;2.72;1.58;;;;;;;17.77;61.14;100868.78;684250;28;1505;-82
2022/09/02 00:23:04;;;;;;;3.22;1.50;;;;;;;17.73;61.74;100884.81;681193;28;1379;-81
2022/09/02 00:23:25;;;;;;;4.18;1.63;;;;;;;17.74;61.37;100873.31;681281;29;1288;-80
2022/09/02 00:23:46;;;;;;;3.50;1.60;;;;;;;17.72;61.27;100883.06;681541;28;1250;-80
2022/09/02 00:24:07;;;;;;;2.55;1.40;;;;;;;17.76;61.45;100887.34;685898;28;1258;-80
2022/09/02 00:24:28;;;;;;;3.22;1.50;;;;;;;17.77;61.17;100871.44;683294;28;1199;-83
2022/09/02 00:24:49;;;;;;;3.10;1.60;;;;;;;17.79;61.16;100893.41;685666;28;4321;-80
2022/09/02 00:25:10;;;;;;;2.78;1.42;;;;;;;17.84;61.02;100866.81;683405;28;1963;-81
2022/09/02 00:25:31;;;;;;;3.33;1.60;;;;;;;17.82;61.19;100872.16;683798;28;1340;-82
2022/09/02 00:25:51;;;;;;;3.40;1.60;;;;;;;17.77;60.80;100873.22;681385;28;1440;-80
2022/09/02 00:26:13;;;;;;;3.50;1.60;;;;;;;17.79;60.92;100889.88;680999;28;1557;-82
2022/09/02 00:26:33;;;;;;;2.88;1.40;;;;;;;17.81;61.20;100873.06;685957;28;1297;-82
2022/09/02 00:26:54;;;;;;;2.70;1.30;;;;;;;17.75;62.12;100877.66;685554;28;1242;-82
2022/09/02 00:27:14;;;;;;;3.57;1.50;;;;;;;17.76;61.70;100892.63;681204;28;1476;-82
2022/09/02 00:27:38;;;;;;;3.70;1.60;;;;;;;17.72;61.33;100869.84;680843;28;4397;-81
2022/09/02 00:27:58;;;;;;;4.03;1.70;;;;;;;17.72;61.67;100868.06;681296;28;1179;-83
2022/09/02 00:28:20;;;;;;;3.53;1.63;;;;;;;17.78;60.99;100869.66;680717;29;1228;-82
2022/09/02 00:28:41;;;;;;;3.65;1.63;;;;;;;17.78;61.14;100861.75;682923;28;1614;-81
2022/09/02 00:29:02;;;;;;;3.33;1.63;;;;;;;17.77;61.04;100881.16;682849;28;1397;-81
2022/09/02 00:29:25;;;;;;;3.67;1.70;;;;;;;17.77;60.93;100881.16;685906;28;1532;-83
2022/09/02 00:29:47;;;;;;;3.30;1.60;;;;;;;17.75;61.76;100867.09;686721;28;1420;-80
2022/09/02 00:30:08;;;;;;;2.75;1.40;;;;;;;17.75;61.30;100869.75;683987;28;1362;-78
2022/09/02 00:30:29;;;;;;;2.70;1.50;;;;;;;17.71;61.63;100866.34;679566;28;1255;-80
2022/09/02 00:30:50;;;;;;;3.08;1.40;;;;;;;17.70;61.44;100870.75;680154;28;4420;-80
2022/09/02 00:31:11;;;;;;;4.35;1.60;;;;;;;17.74;61.00;100881.25;678029;28;1238;-82
2022/09/02 00:31:32;;;;;;;2.60;1.60;;;;;;;17.73;61.21;100884.81;683841;28;1391;-82
2022/09/02 00:31:53;;;;;;;2.70;1.70;;;;;;;17.72;61.72;100865.41;684425;28;1313;-80
2022/09/02 00:32:14;;;;;;;3.58;1.38;;;;;;;17.70;61.19;100873.41;684084;28;1417;-82
2022/09/02 00:32:34;;;;;;;3.47;1.38;;;;;;;17.67;61.55;100860.28;686726;28;1242;-81
2022/09/02 00:32:55;;;;;;;4.37;1.60;;;;;;;17.76;61.63;100874.13;684943;28;1435;-82
2022/09/02 00:33:16;;;;;;;3.17;1.65;;;;;;;17.80;62.13;100862.53;686187;28;1326;-78
2022/09/02 00:33:38;;;;;;;2.75;1.50;;;;;;;17.78;61.29;100867.88;683723;28;4420;-82
2022/09/02 00:33:58;;;;;;;4.35;1.80;;;;;;;17.82;61.40;100864.22;681468;29;1602;-83
2022/09/02 00:34:19;;;;;;;2.90;1.67;;;;;;;17.81;61.70;100866.91;677924;29;1235;-81
2022/09/02 00:34:40;;;;;;;2.33;1.53;;;;;;;17.83;61.21;100865.97;681321;29;1312;-81
2022/09/02 00:35:00;;;;;;;3.70;1.63;;;;;;;17.80;61.25;100865.19;681676;29;1434;-83
2022/09/02 00:35:22;;;;;;;4.90;1.73;;;;;;;17.78;61.49;100875.81;681179;28;1288;-83
2022/09/02 00:35:43;;;;;;;3.77;1.53;;;;;;;17.73;61.80;100868.94;681739;29;1677;-80
2022/09/02 00:36:07;;;;;;;3.97;1.50;;;;;;;17.77;61.99;100858.22;684092;28;1338;-80
2022/09/02 00:36:27;;;;;;;3.28;1.50;;;;;;;17.73;61.47;100858.38;687848;28;1330;-81
2022/09/02 00:36:48;;;;;;;3.85;1.60;;;;;;;17.72;61.50;100880.41;686706;28;4391;-80
2022/09/02 00:37:09;;;;;;;3.90;1.63;;;;;;;17.72;61.78;100893.63;686518;28;1176;-82
2022/09/02 00:37:30;;;;;;;3.55;1.48;;;;;;;17.70;61.80;100859.31;688567;28;1017;-80
2022/09/02 00:37:51;;;;;;;4.15;1.55;;;;;;;17.69;61.51;100879.63;686591;28;1052;-82
2022/09/02 00:38:12;;;;;;;4.37;1.70;;;;;;;17.63;62.13;100871.84;683313;28;1366;-78
2022/09/02 00:38:34;;;;;;;4.10;1.60;;;;;;;17.67;61.99;100873.50;683635;28;1718;-81
2022/09/02 00:38:55;;;;;;;2.97;1.60;;;;;;;17.66;61.97;100861.19;683983;28;1236;-80
2022/09/02 00:39:16;;;;;;;3.47;1.60;;;;;;;17.73;61.76;100864.50;684450;28;1793;-80
2022/09/02 00:39:36;;;;;;;3.03;1.55;;;;;;;17.76;61.47;100861.75;683813;28;4405;-82
2022/09/02 00:40:00;;;;;;;2.43;1.43;;;;;;;17.72;62.04;100856.63;681122;28;1263;-81
2022/09/02 00:40:22;;;;;;;2.83;1.38;;;;;;;17.75;61.63;100872.38;678389;29;1283;-83
2022/09/02 00:40:45;;;;;;;3.20;1.50;;;;;;;17.77;61.51;100889.09;678721;29;1419;-82
2022/09/02 00:41:09;;;;;;;3.22;1.50;;;;;;;17.75;61.29;100861.81;678848;29;1330;-82
2022/09/02 00:41:31;;;;;;;2.78;1.42;;;;;;;17.76;62.17;100863.53;678809;29;1269;-81
2022/09/02 00:41:52;;;;;;;2.72;1.42;;;;;;;17.77;61.65;100866.13;681305;28;4875;-82
2022/09/02 00:42:12;;;;;;;2.72;1.38;;;;;;;17.76;61.87;100887.34;680700;28;1240;-82
2022/09/02 00:42:34;;;;;;;3.90;1.50;;;;;;;17.73;61.64;100876.88;681361;29;1304;-82
2022/09/02 00:42:54;;;;;;;4.95;1.70;;;;;;;17.70;62.08;100859.31;683579;28;4278;-81
2022/09/02 00:43:36;;;;;;;3.80;1.60;;;;;;;17.75;61.64;100860.06;681999;28;1248;-83
2022/09/02 00:44:02;;;;;;;2.83;1.40;;;;;;;17.74;61.38;100876.81;682646;28;1247;-82
2022/09/02 00:44:22;;;;;;;2.45;1.50;;;;;;;17.72;62.04;100851.34;682338;28;1650;-82
2022/09/02 00:44:43;;;;;;;4.00;1.60;;;;;;;17.72;62.22;100867.19;683955;28;1575;-82
2022/09/02 00:45:06;;;;;;;3.23;1.57;;;;;;;17.70;62.56;100854.88;682139;28;1152;-81
2022/09/02 00:45:27;;;;;;;2.60;1.58;;;;;;;17.66;62.80;100855.91;684095;28;1371;-82
2022/09/02 00:45:48;;;;;;;3.35;1.70;;;;;;;17.63;62.75;100857.78;683831;28;4341;-81
2022/09/02 00:46:09;;;;;;;2.97;1.65;;;;;;;17.67;62.65;100864.72;683007;28;1244;-83
2022/09/02 00:46:32;;;;;;;2.95;1.50;;;;;;;17.66;61.97;100874.41;682139;28;1454;-82
2022/09/02 00:46:52;;;;;;;2.70;1.50;;;;;;;17.65;61.81;100883.28;687211;28;1557;-82
2022/09/02 00:47:14;;;;;;;3.00;1.40;;;;;;;17.62;62.03;100851.63;686677;28;1411;-83
2022/09/02 00:47:35;;;;;;;3.28;1.42;;;;;;;17.62;62.15;100851.63;681463;28;1417;-83
2022/09/02 00:47:56;;;;;;;2.67;1.55;;;;;;;17.62;62.09;100871.91;681516;28;1302;-82
2022/09/02 00:48:16;;;;;;;3.15;1.70;;;;;;;17.66;61.92;100869.13;683243;28;1286;-84
2022/09/02 00:48:40;;;;;;;2.40;1.60;;;;;;;17.68;61.85;100875.22;683731;28;4505;-83
2022/09/02 00:49:07;;;;;;;2.60;1.50;;;;;;;17.75;61.84;100859.16;683309;28;1472;-80
2022/09/02 00:49:30;;;;;;;3.10;1.50;;;;;;;17.73;61.87;100858.38;681936;28;1120;-79
2022/09/02 00:49:53;;;;;;;3.55;1.80;;;;;;;17.77;61.74;100860.84;683464;28;1680;-83
2022/09/02 00:50:16;;;;;;;3.42;1.70;;;;;;;17.76;61.57;100858.25;681020;29;1409;-82
2022/09/02 00:50:37;;;;;;;3.28;1.50;;;;;;;17.73;61.69;100861.00;686365;28;1274;-83
2022/09/02 00:50:58;;;;;;;3.28;1.50;;;;;;;17.72;61.78;100868.06;679952;28;1115;-81
2022/09/02 00:51:19;;;;;;;1.98;1.48;;;;;;;17.70;62.36;100854.88;678777;29;1325;-83
2022/09/02 00:51:48;;;;;;;2.50;1.45;;;;;;;17.72;61.96;100870.69;679347;28;4328;-81
2022/09/02 00:52:18;;;;;;;3.38;1.65;;;;;;;17.70;61.83;100872.53;678790;29;1244;-83
2022/09/02 00:52:50;;;;;;;2.60;1.50;;;;;;;17.69;62.31;100858.47;681138;28;1684;-83
2022/09/02 00:53:12;;;;;;;2.60;1.42;;;;;;;17.68;61.98;100851.44;682885;28;1331;-81
2022/09/02 00:53:34;;;;;;;2.88;1.42;;;;;;;17.69;62.31;100876.97;682674;28;1597;-83
2022/09/02 00:53:55;;;;;;;2.53;1.50;;;;;;;17.64;62.84;100865.66;684416;28;1525;-82
2022/09/02 00:54:18;;;;;;;2.72;1.50;;;;;;;17.65;62.54;100856.84;685839;28;1305;-83
2022/09/02 00:54:45;;;;;;;3.00;1.47;;;;;;;17.63;61.95;100890.38;689869;28;4363;-83
2022/09/02 00:55:28;;;;;;;3.03;1.40;;;;;;;17.60;62.23;100853.47;686384;28;1518;-80
2022/09/02 00:55:49;;;;;;;3.65;1.70;;;;;;;17.62;62.20;100862.19;682715;28;1619;-82
2022/09/02 00:56:16;;;;;;;3.97;1.60;;;;;;;17.57;62.71;100850.91;682394;28;1565;-83
2022/09/02 00:56:39;;;;;;;2.75;1.67;;;;;;;17.67;61.89;100855.00;676995;29;1281;-80
2022/09/02 00:57:02;;;;;;;3.25;1.67;;;;;;;17.66;61.92;100861.19;683962;28;1137;-79
2022/09/02 00:57:29;;;;;;;3.60;1.60;;;;;;;17.70;62.08;100849.59;680650;28;1659;-82
2022/09/02 00:57:58;;;;;;;4.20;1.70;;;;;;;17.67;62.69;100857.63;683538;28;4317;-82
2022/09/02 00:58:23;;;;;;;4.18;1.50;;;;;;;17.66;62.23;100855.91;685430;28;1354;-82
2022/09/02 00:58:44;;;;;;;2.88;1.50;;;;;;;17.64;62.35;100852.44;686520;28;1442;-80
2022/09/02 00:59:05;;;;;;;3.17;1.63;;;;;;;17.65;62.43;100861.22;683927;28;1527;-84
2022/09/02 00:59:38;;;;;;;4.22;1.67;;;;;;;17.67;62.09;100870.84;680703;28;1239;-80
2022/09/02 01:00:08;;;;;;;3.80;1.50;;;;;;;17.66;62.32;100849.75;687472;28;1628;-81
2022/09/02 01:00:34;;;;;;;3.67;1.70;;;;;;;17.69;61.98;100862.88;687699;28;1156;-81
2022/09/02 01:00:59;;;;;;;2.92;1.70;;;;;;;17.66;62.10;100866.47;684150;28;4927;-82
2022/09/02 01:01:21;;;;;;;3.38;1.73;;;;;;;17.72;62.11;100883.06;686062;28;1717;-79
2022/09/02 01:01:41;;;;;;;3.30;1.55;;;;;;;17.68;61.97;100867.31;686038;28;1461;-81
2022/09/02 01:02:06;;;;;;;5.07;1.57;;;;;;;17.69;62.08;100857.59;681676;29;1060;-83
2022/09/02 01:02:30;;;;;;;4.05;1.70;;;;;;;17.65;61.96;100867.41;684324;28;1211;-83
2022/09/02 01:02:58;;;;;;;2.72;1.50;;;;;;;17.64;61.87;100867.44;679938;29;1185;-79
2022/09/02 01:03:21;;;;;;;4.45;2.05;;;;;;;17.63;62.23;100850.72;680547;28;1178;-81
2022/09/02 01:03:41;;;;;;;3.58;1.60;;;;;;;17.59;63.00;100867.56;680920;28;4381;-80
2022/09/02 01:04:02;;;;;;;3.13;1.53;;;;;;;17.63;62.69;100850.72;683933;28;1306;-80
2022/09/02 01:04:23;;;;;;;3.28;1.60;;;;;;;17.66;61.92;100860.31;686391;28;1939;-81
2022/09/02 01:04:45;;;;;;;2.85;1.50;;;;;;;17.65;62.00;100867.41;681494;28;1335;-82
2022/09/02 01:05:11;;;;;;;2.50;1.50;;;;;;;17.62;62.15;100842.84;681107;28;1914;-82
2022/09/02 01:05:35;;;;;;;3.75;1.70;;;;;;;17.69;62.33;100853.19;678762;29;1172;-81
2022/09/02 01:05:58;;;;;;;4.75;1.70;;;;;;;17.68;62.64;100851.44;678454;29;1330;-82
2022/09/02 01:06:23;;;;;;;3.45;1.65;;;;;;;17.70;61.85;100854.03;680711;28;1443;-81
2022/09/02 01:06:44;;;;;;;3.75;1.63;;;;;;;17.75;61.81;100843.31;683741;28;4478;-78
2022/09/02 01:07:05;;;;;;;4.07;1.60;;;;;;;17.67;63.21;100847.06;680889;28;1267;-82
2022/09/02 01:07:37;;;;;;;3.15;1.58;;;;;;;17.69;62.00;100849.66;683643;28;1334;-81
2022/09/02 01:07:59;;;;;;;3.70;1.60;;;;;;;17.64;62.33;100847.16;681521;28;1322;-82
2022/09/02 01:08:24;;;;;;;4.18;1.50;;;;;;;17.69;62.22;100869.03;684038;28;1476;-80
2022/09/02 01:08:48;;;;;;;4.18;1.60;;;;;;;17.66;62.27;100840.03;681020;28;1362;-80
2022/09/02 01:09:15;;;;;;;3.55;1.58;;;;;;;17.74;61.79;100844.25;683602;28;1345;-80
2022/09/02 01:09:36;;;;;;;3.33;1.60;;;;;;;17.75;61.69;100872.38;682265;28;4525;-82
2022/09/02 01:09:58;;;;;;;3.17;1.70;;;;;;;17.75;61.70;100856.53;683641;28;1413;-81
2022/09/02 01:10:33;;;;;;;3.08;1.55;;;;;;;17.71;61.88;100863.69;681920;28;1359;-82
2022/09/02 01:10:56;;;;;;;3.60;1.50;;;;;;;17.75;62.43;100867.09;683544;28;1503;-81
2022/09/02 01:11:18;;;;;;;4.90;1.45;;;;;;;17.72;62.54;100843.41;684997;28;1314;-80
2022/09/02 01:11:46;;;;;;;2.97;1.50;;;;;;;17.70;62.50;100854.88;686499;28;1415;-81
2022/09/02 01:12:07;;;;;;;2.85;1.60;;;;;;;17.67;62.62;100847.06;686244;28;1298;-80
2022/09/02 01:12:29;;;;;;;2.88;1.45;;;;;;;17.68;62.22;100866.41;686588;28;782;-82
2022/09/02 01:12:55;;;;;;;3.13;1.40;;;;;;;17.70;61.97;100854.03;682560;28;4292;-82
2022/09/02 01:13:19;;;;;;;3.45;1.70;;;;;;;17.71;62.35;100850.47;684028;28;1356;-81
2022/09/02 01:13:42;;;;;;;4.28;1.70;;;;;;;17.65;62.76;100848.03;683928;28;1360;-82
2022/09/02 01:14:02;;;;;;;3.97;1.70;;;;;;;17.66;62.71;100863.81;682558;28;1377;-82
2022/09/02 01:14:23;;;;;;;3.05;1.60;;;;;;;17.63;62.61;100857.78;685800;28;1600;-81
2022/09/02 01:14:44;;;;;;;4.00;1.60;;;;;;;17.60;62.31;100869.31;685564;28;1224;-81
2022/09/02 01:15:08;;;;;;;3.55;1.55;;;;;;;17.57;62.42;100863.25;683232;28;1347;-81
2022/09/02 01:15:29;;;;;;;2.63;1.40;;;;;;;17.59;62.93;100845.56;685840;28;3518;-81
2022/09/02 01:16:09;;;;;;;3.10;1.52;;;;;;;17.68;62.16;100850.56;683231;28;4310;-82
2022/09/02 01:16:36;;;;;;;3.40;1.70;;;;;;;17.61;62.26;100849.91;687475;28;1440;-81
2022/09/02 01:17:00;;;;;;;4.20;1.50;;;;;;;17.66;61.92;100847.97;685649;28;1354;-81
2022/09/02 01:17:21;;;;;;;3.97;1.73;;;;;;;17.65;62.14;100845.38;686138;28;1619;-80
2022/09/02 01:17:46;;;;;;;3.57;1.70;;;;;;;17.67;62.07;100848.84;687705;28;1257;-81
2022/09/02 01:18:10;;;;;;;3.10;1.45;;;;;;;17.66;62.18;100847.97;686450;28;1511;-80
2022/09/02 01:18:35;;;;;;;2.90;1.52;;;;;;;17.69;62.30;100847.91;685338;28;1313;-80
2022/09/02 01:18:59;;;;;;;2.58;1.52;;;;;;;17.68;62.21;100861.13;682871;28;5242;-82
2022/09/02 01:19:26;;;;;;;2.97;1.60;;;;;;;17.65;62.06;100870.06;684716;28;1396;-81
2022/09/02 01:19:58;;;;;;;4.22;1.50;;;;;;;17.64;62.62;100849.81;683586;28;1561;-82
2022/09/02 01:20:24;;;;;;;2.70;1.40;;;;;;;17.58;62.79;100852.63;686206;28;1293;-80
2022/09/02 01:20:45;;;;;;;3.03;1.55;;;;;;;17.60;62.29;100850.81;684085;28;1476;-81
2022/09/02 01:21:06;;;;;;;4.50;1.60;;;;;;;17.64;61.92;100870.97;680431;28;1560;-83
2022/09/02 01:21:28;;;;;;;3.95;1.60;;;;;;;17.60;62.04;100845.53;681022;28;1382;-81
2022/09/02 01:21:52;;;;;;;4.10;1.60;;;;;;;17.60;62.56;100868.44;680339;28;4454;-81
2022/09/02 01:22:22;;;;;;;3.10;1.60;;;;;;;17.54;62.83;100869.50;679490;28;1404;-82
2022/09/02 01:22:44;;;;;;;3.42;1.67;;;;;;;17.58;62.31;100854.41;682791;28;1516;-82
2022/09/02 01:23:05;;;;;;;3.65;1.80;;;;;;;17.63;62.18;100855.16;682957;28;1225;-81
2022/09/02 01:23:30;;;;;;;3.92;1.60;;;;;;;17.62;62.50;100848.97;681157;29;1314;-82
2022/09/02 01:23:52;;;;;;;2.53;1.40;;;;;;;17.63;62.68;100855.16;681165;29;1511;-81
2022/09/02 01:24:13;;;;;;;3.78;1.42;;;;;;;17.58;63.07;100860.56;683419;28;1649;-81
2022/09/02 01:24:34;;;;;;;3.70;1.48;;;;;;;17.63;62.45;100850.72;683974;28;1648;-82
2022/09/02 01:24:58;;;;;;;3.28;1.60;;;;;;;17.65;62.04;100861.22;684355;28;4626;-83
2022/09/02 01:25:26;;;;;;;2.42;1.50;;;;;;;17.64;62.45;100875.34;684944;28;1979;-82
2022/09/02 01:25:47;;;;;;;3.25;1.60;;;;;;;17.68;62.08;100871.72;683047;28;1310;-82
2022/09/02 01:26:07;;;;;;;3.53;1.63;;;;;;;17.67;62.27;100872.63;680867;28;1443;-80
2022/09/02 01:26:28;;;;;;;3.97;1.77;;;;;;;17.62;62.24;100864.84;680597;29;1404;-82
2022/09/02 01:26:52;;;;;;;4.53;1.60;;;;;;;17.67;62.01;100844.41;678372;29;1268;-83
2022/09/02 01:27:20;;;;;;;4.18;1.60;;;;;;;17.74;61.69;100870.69;680721;29;1448;-84
2022/09/02 01:27:40;;;;;;;4.35;1.60;;;;;;;17.74;61.75;100854.81;680410;28;4328;-83
2022/09/02 01:28:05;;;;;;;3.55;1.70;;;;;;;17.68;61.84;100855.84;681337;29;1768;-81
2022/09/02 01:28:26;;;;;;;3.47;1.70;;;;;;;17.62;62.60;100851.63;683833;28;1521;-80
2022/09/02 01:28:46;;;;;;;2.67;1.50;;;;;;;17.61;62.57;100876.34;683540;28;1212;-81
2022/09/02 01:29:07;;;;;;;3.10;1.50;;;;;;;17.58;62.56;100875.56;684098;28;1578;-79
2022/09/02 01:29:28;;;;;;;3.08;1.45;;;;;;;17.59;63.03;100853.50;684027;28;1241;-83
2022/09/02 01:29:57;;;;;;;3.42;1.48;;;;;;;17.61;62.50;100865.78;685250;28;1357;-82
2022/09/02 01:30:23;;;;;;;4.50;1.58;;;;;;;17.55;62.46;100849.22;681035;28;1404;-79
2022/09/02 01:30:49;;;;;;;2.42;1.40;;;;;;;17.53;62.51;100867.78;682665;28;4400;-80
2022/09/02 01:31:10;;;;;;;3.53;1.70;;;;;;;17.55;62.52;100879.16;683118;28;1359;-81
2022/09/02 01:31:31;;;;;;;3.97;1.70;;;;;;;17.52;62.78;100872.19;680814;29;1210;-81
2022/09/02 01:31:52;;;;;;;3.78;1.52;;;;;;;17.49;63.26;100845.00;682609;28;1219;-80
2022/09/02 01:32:12;;;;;;;3.22;1.60;;;;;;;17.51;63.15;100845.81;681479;28;1266;-79
2022/09/02 01:32:36;;;;;;;3.57;1.63;;;;;;;17.56;62.44;100846.53;681595;28;1623;-83
2022/09/02 01:32:57;;;;;;;3.15;1.60;;;;;;;17.60;62.30;100858.75;681946;28;1272;-83
2022/09/02 01:33:20;;;;;;;3.38;1.60;;;;;;;17.58;62.29;100839.41;682174;28;1240;-80
2022/09/02 01:33:41;;;;;;;3.67;1.48;;;;;;;17.58;62.17;100859.69;679278;28;4443;-82
2022/09/02 01:34:05;;;;;;;4.33;1.70;;;;;;;17.55;62.41;100863.28;684035;28;1498;-81
2022/09/02 01:34:25;;;;;;;3.70;1.65;;;;;;;17.52;62.24;100842.25;684585;28;1160;-80
2022/09/02 01:34:50;;;;;;;3.28;1.50;;;;;;;17.55;63.03;100838.66;680909;28;1739;-80
2022/09/02 01:35:11;;;;;;;3.15;1.48;;;;;;;17.56;62.70;100846.53;681119;29;1321;-83
2022/09/02 01:35:32;;;;;;;4.07;1.50;;;;;;;17.56;62.75;100861.53;681425;28;1542;-81
2022/09/02 01:35:56;;;;;;;3.75;1.77;;;;;;;17.54;63.01;100840.41;681337;28;1327;-80
2022/09/02 01:36:17;;;;;;;3.28;1.60;;;;;;;17.54;62.56;100843.06;681864;28;1420;-84
2022/09/02 01:36:40;;;;;;;3.45;1.60;;;;;;;17.52;62.66;100866.03;683929;28;4524;-83
2022/09/02 01:37:01;;;;;;;3.47;1.58;;;;;;;17.51;62.67;100843.16;680699;29;1551;-83
2022/09/02 01:37:21;;;;;;;2.90;1.60;;;;;;;17.47;62.65;100846.81;679685;28;1272;-79
2022/09/02 01:37:44;;;;;;;3.38;1.58;;;;;;;17.50;62.32;100846.72;679868;29;1392;-82
2022/09/02 01:38:06;;;;;;;3.22;1.65;;;;;;;17.50;62.38;100834.38;684237;28;1630;-79
2022/09/02 01:38:27;;;;;;;2.95;1.65;;;;;;;17.51;62.01;100869.59;685329;28;1420;-80
2022/09/02 01:38:54;;;;;;;3.45;1.50;;;;;;;17.55;62.28;100852.72;683380;28;1404;-81
2022/09/02 01:39:18;;;;;;;2.75;1.40;;;;;;;17.53;62.23;100858.06;686168;28;1286;-82
2022/09/02 01:39:39;;;;;;;3.75;2.30;;;;;;;17.56;62.28;100838.59;683197;28;4362;-82
2022/09/02 01:40:00;;;;;;;3.97;1.90;;;;;;;17.60;62.05;100857.84;684873;28;1617;-81
2022/09/02 01:40:22;;;;;;;3.30;1.60;;;;;;;17.54;62.62;100843.06;683388;28;1335;-81
2022/09/02 01:40:44;;;;;;;3.85;1.75;;;;;;;17.51;62.29;100851.97;685710;28;1417;-83
2022/09/02 01:41:05;;;;;;;3.17;1.80;;;;;;;17.51;62.48;100841.41;683509;28;1534;-81
2022/09/02 01:41:26;;;;;;;2.88;1.63;;;;;;;17.48;62.63;100837.97;681380;28;1335;-80
2022/09/02 01:41:46;;;;;;;3.70;1.52;;;;;;;17.49;62.86;100847.66;681372;28;5451;-82
2022/09/02 01:42:07;;;;;;;4.17;1.60;;;;;;;17.48;62.61;100859.13;683566;28;1351;-80
2022/09/02 01:42:28;;;;;;;2.45;1.52;;;;;;;17.49;62.66;100837.06;681514;29;1390;-81
2022/09/02 01:42:53;;;;;;;2.95;1.60;;;;;;;17.48;62.91;100837.97;682946;28;4316;-80
2022/09/02 01:43:19;;;;;;;3.38;1.67;;;;;;;17.51;63.47;100840.50;678351;29;1701;-78
2022/09/02 01:43:42;;;;;;;3.03;1.50;;;;;;;17.53;62.87;100836.06;678777;29;1528;-80
2022/09/02 01:44:04;;;;;;;2.97;1.70;;;;;;;17.48;63.15;100841.47;678334;29;1466;-82
2022/09/02 01:44:26;;;;;;;3.67;1.50;;;;;;;17.50;62.64;100844.94;678351;29;1450;-79
2022/09/02 01:44:47;;;;;;;3.35;1.60;;;;;;;17.48;63.13;100874.97;678766;29;1431;-82
2022/09/02 01:45:09;;;;;;;2.78;1.50;;;;;;;17.44;63.03;100845.13;681257;28;1969;-79
2022/09/02 01:45:29;;;;;;;3.55;1.65;;;;;;;17.48;62.61;100848.53;678447;29;1501;-78
2022/09/02 01:45:53;;;;;;;3.65;1.60;;;;;;;17.47;62.67;100837.13;677711;29;4344;-80
2022/09/02 01:46:15;;;;;;;3.80;1.50;;;;;;;17.44;63.30;100857.47;680159;29;1676;-81
2022/09/02 01:46:36;;;;;;;3.87;1.70;;;;;;;17.42;63.57;100854.00;681608;28;1372;-83
2022/09/02 01:46:56;;;;;;;4.22;1.90;;;;;;;17.42;64.26;100835.50;683394;28;1296;-83
2022/09/02 01:47:20;;;;;;;6.63;1.90;;;;;;;17.44;63.58;100838.97;682787;28;1429;-80
2022/09/02 01:47:41;;;;;;;3.55;1.52;;;;;;;17.45;63.34;100836.28;681381;28;1413;-84
2022/09/02 01:48:03;;;;;;;2.97;1.50;;;;;;;17.41;62.98;100853.16;684200;28;1372;-82